• Join FlightAware (Why Join?)
  • Login
  • US Flag 
03:39AM EDT


 

Airport Tracker/Info


-or-


 

Live Flight TrackerFlight Track Log ✈ CTL13 ✈ 19-Jul-2014 ✈ KRIC - KBUY

Flight Track Log - Related Links

Times and Time Zones

All times are in EDT time to prevent confusion due to time zone crossing. See the CTL13 flight status page for this flight to view local times or setup timezone preferences in your user account.

Time Position Orientation Groundspeed Altitude Reporting Facility
EDT Latitude Longitude Course Direction KTS MPH feet Rate Location/Type
02:17AM 37.4833 -77.3500 218° Southwest 119 137 1,400  Level Potomac TRACON
02:18AM 37.4500 -77.3833 218° Southwest 134 154 2,400 900 Climbing Potomac TRACON
02:19AM 37.4333 -77.4333 247° West 140 161 3,300 780 Climbing Potomac TRACON
02:20AM 37.4167 -77.4667 238° Southwest 154 177 4,000 660 Climbing Potomac TRACON
02:21AM 37.3922 -77.5183 239° Southwest 156 180 4,800 660 Climbing Washington Center
02:22AM 37.3728 -77.5622 241° Southwest 156 180 5,500 600 Climbing Washington Center
02:23AM 37.3492 -77.6086 237° Southwest 149 171 6,000 180 Climbing Washington Center
02:24AM 37.3253 -77.6578 239° Southwest 170 196 5,900  Descending Washington Center
02:25AM 37.3014 -77.7092 240° Southwest 170 196 6,000  Climbing Washington Center
02:26AM 37.2778 -77.7583 239° Southwest 170 196 6,000  Level Washington Center
02:27AM 37.2539 -77.8122 241° Southwest 170 196 6,000 -60 Level Washington Center
02:28AM 37.2297 -77.8664 241° Southwest 175 201 5,900  Descending Washington Center
02:29AM 37.2039 -77.9178 238° Southwest 175 201 6,000  Climbing Washington Center
02:30AM 37.1819 -77.9667 241° Southwest 175 201 6,000  Level Washington Center
02:31AM 37.1517 -78.0256 237° Southwest 181 208 6,000  Level Washington Center
02:32AM 37.1275 -78.0769 239° Southwest 181 208 6,000  Level Washington Center
02:33AM 37.1014 -78.1256 236° Southwest 181 208 6,000  Level Washington Center
02:34AM 37.0692 -78.1714 229° Southwest 181 208 6,000  Level Washington Center
02:35AM 37.0350 -78.2144 225° Southwest 181 208 6,000  Level Washington Center
02:36AM 37.0050 -78.2525 225° Southwest 181 208 6,000  Level Washington Center
02:37AM 36.9725 -78.2981 228° Southwest 181 208 6,000  Level Washington Center
02:38AM 36.9361 -78.3436 225° Southwest 181 208 6,000  Level Washington Center
02:39AM 36.8997 -78.3867 223° Southwest 181 208 6,000  Level Washington Center
02:40AM 36.8694 -78.4322 230° Southwest 176 203 6,000  Level Washington Center
02:41AM 36.8350 -78.4725 223° Southwest 181 208 6,000  Level Washington Center
02:42AM 36.8028 -78.5128 225° Southwest 181 208 6,000  Level Washington Center
02:43AM 36.7683 -78.5556 225° Southwest 181 208 6,000  Level Washington Center
02:44AM 36.7358 -78.5983 227° Southwest 181 208 6,000 -60 Level Washington Center
02:45AM 36.7014 -78.6436 227° Southwest 176 203 5,900  Descending Washington Center
02:46AM 36.6625 -78.6914 225° Southwest 176 203 6,000  Climbing Washington Center
02:47AM 36.6300 -78.7392 230° Southwest 190 219 6,000  Level Washington Center
02:48AM 36.5956 -78.7844 227° Southwest 184 212 6,000  Level Washington Center
02:49AM 36.5631 -78.8269 226° Southwest 184 212 6,000 -240 Level Washington Center
02:50AM 36.5306 -78.8722 228° Southwest 184 212 5,600 -600 Descending Washington Center
02:51AM 36.4936 -78.9197 226° Southwest 189 217 4,900 -600 Descending Washington Center
02:52AM 36.4569 -78.9647 225° Southwest 189 217 4,400 -540 Descending Washington Center
02:53AM 36.4203 -79.0094 224° Southwest 189 217 3,900 -240 Descending Washington Center
02:54AM 36.3881 -79.0442 221° Southwest 179 206 4,000  Climbing Washington Center
02:55AM 36.3533 -79.0917 228° Southwest 174 200 4,000  Level Washington Center
02:57AM 36.2869 -79.1758 226° Southwest 165 190 4,000  Level Atlanta Center
02:58AM 36.2544 -79.2169 226° Southwest 165 190 4,000  Level Atlanta Center
02:59AM 36.2206 -79.2614 227° Southwest 165 190 4,000  Level Atlanta Center
03:01AM 36.1764 -79.2973 238° Southwest  Level FlightAware Approximate
03:08AM 36.0497 -79.4730 219° Southwest  Level Estimated
03:09AM 36.0497 -79.4730 219° Southwest  Level Estimated
03:10AM 36.0497 -79.4730 219° Southwest  Level Estimated
03:11AM 36.0497 -79.4730 219° Southwest  Level Estimated
03:12AM 36.0497 -79.4730 219° Southwest  Level Estimated
03:13AM 36.0497 -79.4730 219° Southwest  Level Estimated
03:14AM 36.0497 -79.4730 219° Southwest  Level Estimated